Killarney, Florida
Current Conditions -  °F | °C
As of 11:53 AM on Sunday 21 Dec 2014 (Local Time) from KORL Reporting Station
Clear Clear  
Wind Chill: 78°   Ceiling: Unl
Heat Index: 80°   Visibility: 10mi
Dew Point: 64°   Wind: 12mph
Humidity: 62%   Direction: 170°S
Pressure: 30.06"   Gusts: NA
Location:  28.55°N, 81.65°W
Report Text: KORL 211653Z 17010KT 10SM CLR 26/18 A3006 RMK AO2 RAB11E19 SLP184 P0000 T02560178
Loading
Personal Weather Stations






























Interactive Weather Map New forecast layout! Learn more

10-Day Weather Forecast

Advertisements
Track Severe Weather on mobile